createdAt,value
2023-02-18T00:01:50.380Z,9.00
2023-02-18T00:06:49.177Z,9.00
2023-02-18T00:11:48.709Z,9.00
2023-02-18T00:16:48.116Z,9.00
2023-02-18T00:21:46.881Z,8.90
2023-02-18T00:26:46.234Z,8.90
2023-02-18T00:31:46.537Z,9.00
2023-02-18T00:36:45.262Z,8.90
2023-02-18T00:41:44.891Z,8.90
2023-02-18T00:46:43.759Z,8.80
2023-02-18T00:51:44.040Z,8.90
2023-02-18T00:56:42.548Z,8.80
2023-02-18T01:01:41.245Z,8.80
2023-02-18T01:06:40.162Z,8.80
2023-02-18T01:11:40.019Z,8.70
2023-02-18T01:16:38.566Z,8.70
2023-02-18T01:21:39.685Z,8.70
2023-02-18T01:26:39.639Z,8.60
2023-02-18T01:31:38.271Z,8.60
2023-02-18T01:36:36.820Z,8.60
2023-02-18T01:41:35.971Z,8.60
2023-02-18T01:46:35.898Z,8.50
2023-02-18T01:51:38.951Z,8.50
2023-02-18T01:56:42.299Z,8.40
2023-02-18T02:01:45.505Z,8.40
2023-02-18T02:06:44.414Z,8.40
2023-02-18T02:12:22.326Z,8.40
2023-02-18T02:17:31.462Z,8.40
2023-02-18T02:22:54.984Z,8.40
2023-02-18T02:28:24.060Z,8.40
2023-02-18T02:33:54.933Z,8.40
2023-02-18T02:39:03.236Z,8.30
2023-02-18T02:44:13.437Z,8.30
2023-02-18T02:49:29.886Z,8.30
2023-02-18T02:54:30.070Z,8.40
2023-02-18T02:59:29.106Z,8.40
2023-02-18T03:04:49.218Z,8.50
2023-02-18T03:10:08.603Z,8.50
2023-02-18T03:15:13.502Z,8.50
2023-02-18T03:20:19.394Z,8.50
2023-02-18T03:25:20.710Z,8.50
2023-02-18T03:30:25.880Z,8.60
2023-02-18T03:35:26.512Z,8.50
2023-02-18T03:40:27.469Z,8.60
2023-02-18T03:45:27.378Z,8.60
2023-02-18T03:50:26.103Z,8.60
2023-02-18T03:55:24.641Z,8.60
2023-02-18T04:00:25.189Z,8.60
2023-02-18T04:05:23.709Z,8.60
2023-02-18T04:10:22.773Z,8.60
2023-02-18T04:15:21.275Z,8.70
2023-02-18T04:20:23.454Z,8.70
2023-02-18T04:25:21.969Z,8.70
2023-02-18T04:30:20.905Z,8.80
2023-02-18T04:35:20.800Z,8.80
2023-02-18T04:40:19.094Z,9.10
2023-02-18T04:45:17.784Z,8.80
2023-02-18T04:50:16.432Z,8.80
2023-02-18T04:55:16.431Z,8.90
2023-02-18T05:00:18.302Z,8.90
2023-02-18T05:05:17.413Z,8.90
2023-02-18T05:10:19.395Z,8.90
2023-02-18T05:15:18.109Z,9.00
2023-02-18T05:20:16.675Z,9.00
2023-02-18T05:25:16.657Z,8.90
2023-02-18T05:30:15.311Z,9.00
2023-02-18T05:35:14.361Z,9.00
2023-02-18T05:47:11.623Z,9.00
2023-02-18T05:52:11.230Z,9.00
2023-02-18T05:57:09.842Z,9.00
2023-02-18T06:02:09.718Z,9.00
2023-02-18T06:07:08.325Z,9.10
2023-02-18T06:12:07.265Z,9.00
2023-02-18T06:17:05.800Z,9.10
2023-02-18T06:22:05.886Z,9.10
2023-02-18T06:27:04.444Z,9.10
2023-02-18T06:32:03.303Z,9.10
2023-02-18T06:37:02.148Z,9.20
2023-02-18T06:42:02.044Z,9.20
2023-02-18T06:47:00.514Z,9.20
2023-02-18T06:51:58.999Z,9.20
2023-02-18T06:56:57.540Z,9.20
2023-02-18T07:01:57.398Z,9.20
2023-02-18T07:06:56.025Z,9.20
2023-02-18T07:11:54.176Z,9.20
2023-02-18T07:16:52.997Z,9.20
2023-02-18T07:21:54.717Z,9.40
2023-02-18T07:26:53.169Z,9.30
2023-02-18T07:31:51.759Z,9.30
2023-02-18T07:36:50.198Z,9.30
2023-02-18T07:41:50.240Z,9.30
2023-02-18T07:46:48.595Z,9.40
2023-02-18T07:51:48.585Z,9.40
2023-02-18T07:56:47.584Z,9.40
2023-02-18T08:01:47.671Z,9.50
2023-02-18T08:06:48.650Z,9.50
2023-02-18T08:11:47.416Z,9.50
2023-02-18T08:16:47.338Z,9.60
2023-02-18T08:21:46.306Z,9.60
2023-02-18T08:26:59.478Z,9.60
2023-02-18T08:32:00.872Z,9.70
2023-02-18T08:36:59.492Z,9.90
2023-02-18T08:41:58.884Z,9.70
2023-02-18T08:46:57.408Z,9.80
2023-02-18T08:51:57.045Z,9.80
2023-02-18T08:56:57.777Z,9.80
2023-02-18T09:01:56.281Z,9.80
2023-02-18T09:06:54.406Z,9.90
2023-02-18T09:11:53.938Z,9.90
2023-02-18T09:16:52.431Z,9.90
2023-02-18T09:21:53.469Z,9.90
2023-02-18T09:26:54.568Z,9.90
2023-02-18T09:31:52.986Z,10.00
2023-02-18T09:36:51.529Z,10.00
2023-02-18T09:41:54.214Z,10.10
2023-02-18T09:46:55.760Z,10.10
2023-02-18T09:51:55.102Z,10.10
2023-02-18T09:56:55.917Z,10.10
2023-02-18T10:01:57.165Z,10.20
2023-02-18T10:06:56.341Z,10.20
2023-02-18T10:11:59.423Z,10.20
2023-02-18T10:16:59.084Z,10.30
2023-02-18T10:21:58.663Z,10.20
2023-02-18T10:26:59.736Z,10.20
2023-02-18T10:32:00.864Z,10.30
2023-02-18T10:37:08.765Z,10.30
2023-02-18T10:42:21.370Z,10.40
2023-02-18T10:47:28.038Z,10.50
2023-02-18T10:52:30.782Z,10.60
2023-02-18T10:57:30.354Z,10.70
2023-02-18T11:02:32.466Z,10.70
2023-02-18T11:07:34.739Z,10.80
2023-02-18T11:12:44.577Z,10.90
2023-02-18T11:17:44.467Z,11.00
2023-02-18T11:22:43.511Z,11.10
2023-02-18T11:27:45.507Z,11.20
2023-02-18T11:32:45.422Z,11.30
2023-02-18T11:37:43.582Z,11.40
2023-02-18T11:42:43.513Z,11.40
2023-02-18T11:47:41.676Z,11.50
2023-02-18T11:52:42.261Z,11.50
2023-02-18T11:57:45.036Z,11.60
2023-02-18T12:02:44.515Z,11.60
2023-02-18T12:07:47.151Z,11.70
2023-02-18T12:12:53.040Z,11.70
2023-02-18T12:18:09.672Z,11.80
2023-02-18T12:23:16.567Z,11.80
2023-02-18T12:28:30.016Z,11.80
2023-02-18T12:33:38.498Z,11.80
2023-02-18T12:38:56.465Z,11.90
2023-02-18T12:44:06.372Z,11.90
2023-02-18T12:49:36.502Z,11.90
2023-02-18T12:54:51.360Z,11.90
2023-02-18T13:00:21.035Z,11.90
2023-02-18T13:05:29.953Z,11.90
2023-02-18T13:10:50.040Z,11.90
2023-02-18T13:15:54.329Z,11.90
2023-02-18T13:20:56.663Z,11.90
2023-02-18T13:26:01.221Z,11.90
2023-02-18T13:31:14.357Z,11.90
2023-02-18T13:36:23.512Z,11.90
2023-02-18T13:41:22.472Z,11.90
2023-02-18T13:46:23.689Z,11.90
2023-02-18T13:51:31.958Z,11.90
2023-02-18T13:56:33.090Z,11.90
2023-02-18T14:08:35.548Z,11.90
2023-02-18T14:13:42.137Z,11.90
2023-02-18T14:19:01.758Z,11.90
2023-02-18T14:24:04.636Z,11.90
2023-02-18T14:29:13.019Z,11.80
2023-02-18T14:35:02.652Z,11.80
2023-02-18T14:40:23.388Z,11.80
2023-02-18T14:45:33.368Z,11.80
2023-02-18T14:50:35.179Z,11.80
2023-02-18T14:55:37.275Z,11.80
2023-02-18T15:00:40.842Z,11.70
2023-02-18T15:05:40.956Z,11.70
2023-02-18T15:10:44.889Z,11.70
2023-02-18T15:15:46.213Z,11.70
2023-02-18T15:20:44.746Z,11.70
2023-02-18T15:25:47.150Z,11.70
2023-02-18T15:30:47.185Z,11.70
2023-02-18T15:35:45.704Z,11.60
2023-02-18T15:40:48.140Z,11.60
2023-02-18T15:45:48.741Z,11.50
2023-02-18T15:50:52.771Z,11.50
2023-02-18T15:55:55.280Z,11.50
2023-02-18T16:00:55.931Z,11.50
2023-02-18T16:06:12.661Z,11.40
2023-02-18T16:11:14.410Z,11.50
2023-02-18T16:16:24.288Z,11.40
2023-02-18T16:21:33.140Z,11.40
2023-02-18T16:26:44.933Z,11.30
2023-02-18T16:31:43.556Z,11.30
2023-02-18T16:37:02.705Z,11.30
2023-02-18T16:42:02.738Z,11.20
2023-02-18T16:47:01.240Z,11.20
2023-02-18T16:52:10.148Z,11.20
2023-02-18T16:57:11.667Z,11.20
2023-02-18T17:02:18.508Z,11.20
2023-02-18T17:07:17.316Z,11.20
2023-02-18T17:12:17.155Z,11.20
2023-02-18T17:17:18.215Z,11.00
2023-02-18T17:22:17.041Z,11.00
2023-02-18T17:27:16.861Z,10.90
2023-02-18T17:32:15.540Z,10.50
2023-02-18T17:37:14.729Z,10.50
2023-02-18T17:42:14.986Z,10.40
2023-02-18T17:47:14.936Z,10.30
2023-02-18T17:52:30.837Z,10.30
2023-02-18T17:57:29.373Z,10.30
2023-02-18T18:02:29.942Z,10.30
2023-02-18T18:07:28.406Z,10.40
2023-02-18T18:12:27.244Z,10.40
2023-02-18T18:17:25.380Z,10.40
2023-02-18T18:22:24.869Z,10.40
2023-02-18T18:27:23.333Z,10.40
2023-02-18T18:32:22.875Z,10.50
2023-02-18T18:37:21.484Z,10.50
2023-02-18T18:42:21.564Z,10.50
2023-02-18T18:47:20.087Z,10.50
2023-02-18T18:52:18.786Z,10.40
2023-02-18T18:57:17.245Z,10.40
2023-02-18T19:02:17.726Z,10.30
2023-02-18T19:07:16.369Z,10.30
2023-02-18T19:12:14.833Z,10.30
2023-02-18T19:17:13.272Z,10.30
2023-02-18T19:22:13.098Z,10.40
2023-02-18T19:27:11.621Z,10.30
2023-02-18T19:32:10.116Z,10.30
2023-02-18T19:37:08.670Z,10.30
2023-02-18T19:42:08.178Z,10.30
2023-02-18T19:47:06.691Z,10.40
2023-02-18T19:52:05.323Z,10.40
2023-02-18T19:57:05.520Z,10.40
2023-02-18T20:02:05.756Z,10.40
2023-02-18T20:07:04.710Z,10.40
2023-02-18T20:12:03.585Z,10.40
2023-02-18T20:17:02.079Z,10.30
2023-02-18T20:22:02.142Z,10.10
2023-02-18T20:27:02.860Z,10.00
2023-02-18T20:32:02.065Z,9.90
2023-02-18T20:37:02.500Z,10.00
2023-02-18T20:42:11.189Z,10.00
2023-02-18T20:47:14.851Z,10.10
2023-02-18T20:52:14.989Z,10.10
2023-02-18T20:57:13.501Z,10.00
2023-02-18T21:02:12.939Z,10.10
2023-02-18T21:07:11.459Z,10.00
2023-02-18T21:12:11.422Z,10.10
2023-02-18T21:17:09.912Z,10.10
2023-02-18T21:22:08.424Z,10.00
2023-02-18T21:27:06.876Z,10.00
2023-02-18T21:32:08.031Z,10.10
2023-02-18T21:37:06.606Z,10.10
2023-02-18T21:42:07.101Z,10.10
2023-02-18T21:47:07.169Z,10.10
2023-02-18T21:52:09.699Z,10.00
2023-02-18T21:57:10.991Z,10.00
2023-02-18T22:02:16.903Z,9.90
2023-02-18T22:07:16.255Z,9.90
2023-02-18T22:12:14.820Z,9.90
2023-02-18T22:17:16.401Z,9.90
2023-02-18T22:22:14.500Z,10.20
2023-02-18T22:27:13.303Z,9.80
2023-02-18T22:32:12.196Z,9.80
2023-02-18T22:37:12.108Z,9.80
2023-02-18T22:42:10.245Z,9.80
2023-02-18T22:47:09.124Z,9.70
2023-02-18T22:52:07.632Z,9.80
2023-02-18T22:57:07.467Z,9.70
2023-02-18T23:02:05.605Z,10.00
2023-02-18T23:07:04.143Z,9.70
2023-02-18T23:12:02.673Z,9.70
2023-02-18T23:17:18.077Z,9.70
2023-02-18T23:22:18.635Z,9.70
2023-02-18T23:27:17.582Z,9.70
2023-02-18T23:32:17.515Z,9.50
2023-02-18T23:37:15.991Z,9.60
2023-02-18T23:42:15.540Z,9.60
2023-02-18T23:47:14.397Z,9.60
2023-02-18T23:52:14.860Z,9.60
2023-02-18T23:57:13.689Z,9.60
